sensor_id;sensor_type;location;lat;lon;timestamp;P1;durP1;ratioP1;P2;durP2;ratioP2
21258;SDS011;10787;53.364;-1.480;2022-07-17T00:00:37;15.57;;;11.98;;
21258;SDS011;10787;53.364;-1.480;2022-07-17T00:03:11;16.15;;;12.10;;
21258;SDS011;10787;53.364;-1.480;2022-07-17T00:05:38;15.52;;;12.02;;
21258;SDS011;10787;53.364;-1.480;2022-07-17T00:08:08;17.92;;;12.25;;
21258;SDS011;10787;53.364;-1.480;2022-07-17T00:10:39;15.80;;;11.88;;
21258;SDS011;10787;53.364;-1.480;2022-07-17T00:13:07;14.55;;;11.65;;
21258;SDS011;10787;53.364;-1.480;2022-07-17T00:15:34;16.70;;;11.93;;
21258;SDS011;10787;53.364;-1.480;2022-07-17T00:18:00;18.27;;;12.32;;
21258;SDS011;10787;53.364;-1.480;2022-07-17T00:20:27;16.13;;;11.70;;
21258;SDS011;10787;53.364;-1.480;2022-07-17T00:22:54;15.63;;;12.07;;
21258;SDS011;10787;53.364;-1.480;2022-07-17T00:25:21;14.60;;;11.48;;
21258;SDS011;10787;53.364;-1.480;2022-07-17T00:27:47;18.65;;;12.48;;
21258;SDS011;10787;53.364;-1.480;2022-07-17T00:30:14;17.30;;;12.55;;
21258;SDS011;10787;53.364;-1.480;2022-07-17T00:32:41;15.70;;;12.23;;
21258;SDS011;10787;53.364;-1.480;2022-07-17T00:35:08;16.48;;;11.65;;
21258;SDS011;10787;53.364;-1.480;2022-07-17T00:37:44;16.48;;;11.93;;
21258;SDS011;10787;53.364;-1.480;2022-07-17T00:40:12;16.60;;;12.02;;
21258;SDS011;10787;53.364;-1.480;2022-07-17T00:42:42;15.77;;;12.63;;
21258;SDS011;10787;53.364;-1.480;2022-07-17T00:45:09;16.83;;;11.95;;
21258;SDS011;10787;53.364;-1.480;2022-07-17T00:47:56;19.30;;;12.05;;
21258;SDS011;10787;53.364;-1.480;2022-07-17T00:50:24;17.90;;;11.90;;
21258;SDS011;10787;53.364;-1.480;2022-07-17T00:52:52;17.20;;;12.32;;
21258;SDS011;10787;53.364;-1.480;2022-07-17T00:55:19;15.45;;;11.82;;
21258;SDS011;10787;53.364;-1.480;2022-07-17T00:57:46;17.08;;;12.05;;
21258;SDS011;10787;53.364;-1.480;2022-07-17T01:00:14;19.88;;;12.10;;
21258;SDS011;10787;53.364;-1.480;2022-07-17T01:02:44;17.13;;;12.35;;
21258;SDS011;10787;53.364;-1.480;2022-07-17T01:05:12;16.48;;;12.02;;
21258;SDS011;10787;53.364;-1.480;2022-07-17T01:07:38;17.88;;;12.70;;
21258;SDS011;10787;53.364;-1.480;2022-07-17T01:10:04;16.88;;;12.13;;
21258;SDS011;10787;53.364;-1.480;2022-07-17T01:12:31;15.27;;;11.63;;
21258;SDS011;10787;53.364;-1.480;2022-07-17T01:14:58;16.20;;;12.30;;
21258;SDS011;10787;53.364;-1.480;2022-07-17T01:17:25;17.63;;;11.73;;
21258;SDS011;10787;53.364;-1.480;2022-07-17T01:19:52;18.70;;;12.55;;
21258;SDS011;10787;53.364;-1.480;2022-07-17T01:22:18;15.40;;;11.65;;
21258;SDS011;10787;53.364;-1.480;2022-07-17T01:24:44;17.13;;;12.10;;
21258;SDS011;10787;53.364;-1.480;2022-07-17T01:27:11;16.45;;;12.15;;
21258;SDS011;10787;53.364;-1.480;2022-07-17T01:29:37;16.05;;;11.13;;
21258;SDS011;10787;53.364;-1.480;2022-07-17T01:32:04;15.48;;;11.38;;
21258;SDS011;10787;53.364;-1.480;2022-07-17T01:34:31;14.70;;;10.60;;
21258;SDS011;10787;53.364;-1.480;2022-07-17T01:36:57;16.25;;;11.20;;
21258;SDS011;10787;53.364;-1.480;2022-07-17T01:39:23;17.55;;;11.75;;
21258;SDS011;10787;53.364;-1.480;2022-07-17T01:42:07;16.48;;;11.05;;
21258;SDS011;10787;53.364;-1.480;2022-07-17T01:44:34;15.05;;;11.60;;
21258;SDS011;10787;53.364;-1.480;2022-07-17T01:47:00;15.75;;;10.85;;
21258;SDS011;10787;53.364;-1.480;2022-07-17T01:49:26;14.73;;;11.18;;
21258;SDS011;10787;53.364;-1.480;2022-07-17T01:51:51;14.73;;;11.10;;
21258;SDS011;10787;53.364;-1.480;2022-07-17T01:54:17;15.90;;;11.32;;
21258;SDS011;10787;53.364;-1.480;2022-07-17T01:56:43;15.63;;;11.52;;
21258;SDS011;10787;53.364;-1.480;2022-07-17T01:59:09;16.92;;;11.73;;
21258;SDS011;10787;53.364;-1.480;2022-07-17T02:01:35;15.82;;;11.32;;
21258;SDS011;10787;53.364;-1.480;2022-07-17T02:04:01;14.75;;;11.23;;
21258;SDS011;10787;53.364;-1.480;2022-07-17T02:06:28;16.23;;;11.30;;
21258;SDS011;10787;53.364;-1.480;2022-07-17T02:08:53;15.00;;;11.38;;
21258;SDS011;10787;53.364;-1.480;2022-07-17T02:11:19;15.18;;;11.55;;
21258;SDS011;10787;53.364;-1.480;2022-07-17T02:13:45;15.45;;;11.20;;
21258;SDS011;10787;53.364;-1.480;2022-07-17T02:16:11;15.15;;;11.35;;
21258;SDS011;10787;53.364;-1.480;2022-07-17T02:18:36;16.40;;;11.60;;
21258;SDS011;10787;53.364;-1.480;2022-07-17T02:21:02;14.77;;;11.38;;
21258;SDS011;10787;53.364;-1.480;2022-07-17T02:23:29;17.15;;;11.85;;
21258;SDS011;10787;53.364;-1.480;2022-07-17T02:25:54;15.20;;;11.23;;
21258;SDS011;10787;53.364;-1.480;2022-07-17T02:28:21;17.60;;;11.93;;
21258;SDS011;10787;53.364;-1.480;2022-07-17T02:30:47;16.58;;;12.23;;
21258;SDS011;10787;53.364;-1.480;2022-07-17T02:33:13;19.60;;;11.70;;
21258;SDS011;10787;53.364;-1.480;2022-07-17T02:35:39;19.08;;;11.90;;
21258;SDS011;10787;53.364;-1.480;2022-07-17T02:38:05;16.77;;;11.18;;
21258;SDS011;10787;53.364;-1.480;2022-07-17T02:40:31;20.33;;;11.30;;
21258;SDS011;10787;53.364;-1.480;2022-07-17T02:42:57;19.88;;;11.73;;
21258;SDS011;10787;53.364;-1.480;2022-07-17T02:45:22;16.23;;;11.48;;
21258;SDS011;10787;53.364;-1.480;2022-07-17T02:47:51;18.25;;;12.10;;
21258;SDS011;10787;53.364;-1.480;2022-07-17T02:50:19;14.82;;;11.13;;
21258;SDS011;10787;53.364;-1.480;2022-07-17T02:52:49;18.15;;;11.82;;
21258;SDS011;10787;53.364;-1.480;2022-07-17T02:55:15;15.15;;;11.27;;
21258;SDS011;10787;53.364;-1.480;2022-07-17T02:57:43;15.65;;;11.40;;
21258;SDS011;10787;53.364;-1.480;2022-07-17T03:00:12;19.45;;;11.98;;
21258;SDS011;10787;53.364;-1.480;2022-07-17T03:02:41;16.70;;;11.85;;
21258;SDS011;10787;53.364;-1.480;2022-07-17T03:05:10;15.13;;;10.95;;
21258;SDS011;10787;53.364;-1.480;2022-07-17T03:07:37;17.52;;;11.52;;
21258;SDS011;10787;53.364;-1.480;2022-07-17T03:10:04;22.45;;;12.05;;
21258;SDS011;10787;53.364;-1.480;2022-07-17T03:12:30;18.98;;;11.52;;
21258;SDS011;10787;53.364;-1.480;2022-07-17T03:14:56;19.35;;;11.90;;
21258;SDS011;10787;53.364;-1.480;2022-07-17T03:17:21;16.42;;;11.10;;
21258;SDS011;10787;53.364;-1.480;2022-07-17T03:19:47;17.92;;;11.82;;
21258;SDS011;10787;53.364;-1.480;2022-07-17T03:22:13;19.70;;;11.25;;
21258;SDS011;10787;53.364;-1.480;2022-07-17T03:24:39;17.02;;;11.15;;
21258;SDS011;10787;53.364;-1.480;2022-07-17T03:27:05;17.05;;;11.90;;
21258;SDS011;10787;53.364;-1.480;2022-07-17T03:29:31;16.15;;;11.75;;
21258;SDS011;10787;53.364;-1.480;2022-07-17T03:31:58;16.77;;;11.65;;
21258;SDS011;10787;53.364;-1.480;2022-07-17T03:34:24;20.02;;;11.27;;
21258;SDS011;10787;53.364;-1.480;2022-07-17T03:36:50;14.25;;;11.15;;
21258;SDS011;10787;53.364;-1.480;2022-07-17T03:39:17;15.85;;;11.68;;
21258;SDS011;10787;53.364;-1.480;2022-07-17T03:41:43;19.27;;;12.25;;
21258;SDS011;10787;53.364;-1.480;2022-07-17T03:44:09;16.55;;;11.43;;
21258;SDS011;10787;53.364;-1.480;2022-07-17T03:46:35;16.38;;;11.18;;
21258;SDS011;10787;53.364;-1.480;2022-07-17T03:49:00;15.05;;;11.48;;
21258;SDS011;10787;53.364;-1.480;2022-07-17T03:51:28;16.70;;;11.57;;
21258;SDS011;10787;53.364;-1.480;2022-07-17T03:53:55;17.42;;;11.95;;
21258;SDS011;10787;53.364;-1.480;2022-07-17T03:56:22;15.45;;;10.98;;
21258;SDS011;10787;53.364;-1.480;2022-07-17T03:58:48;16.75;;;11.90;;
21258;SDS011;10787;53.364;-1.480;2022-07-17T04:01:14;15.40;;;11.38;;
21258;SDS011;10787;53.364;-1.480;2022-07-17T04:03:40;17.73;;;11.35;;
21258;SDS011;10787;53.364;-1.480;2022-07-17T04:06:10;15.68;;;11.20;;
21258;SDS011;10787;53.364;-1.480;2022-07-17T04:08:40;15.40;;;11.07;;
21258;SDS011;10787;53.364;-1.480;2022-07-17T04:11:08;16.20;;;11.43;;
21258;SDS011;10787;53.364;-1.480;2022-07-17T04:13:40;14.13;;;10.70;;
21258;SDS011;10787;53.364;-1.480;2022-07-17T04:16:13;14.65;;;10.80;;
21258;SDS011;10787;53.364;-1.480;2022-07-17T04:18:38;17.52;;;11.27;;
21258;SDS011;10787;53.364;-1.480;2022-07-17T04:21:05;14.20;;;10.95;;
21258;SDS011;10787;53.364;-1.480;2022-07-17T04:23:33;18.52;;;11.20;;
21258;SDS011;10787;53.364;-1.480;2022-07-17T04:25:59;15.30;;;10.85;;
21258;SDS011;10787;53.364;-1.480;2022-07-17T04:28:25;16.75;;;11.30;;
21258;SDS011;10787;53.364;-1.480;2022-07-17T04:30:51;14.90;;;10.45;;
21258;SDS011;10787;53.364;-1.480;2022-07-17T04:33:17;16.05;;;10.95;;
21258;SDS011;10787;53.364;-1.480;2022-07-17T04:35:43;14.85;;;10.98;;
21258;SDS011;10787;53.364;-1.480;2022-07-17T04:38:09;15.70;;;11.13;;
21258;SDS011;10787;53.364;-1.480;2022-07-17T04:40:36;15.80;;;10.48;;
21258;SDS011;10787;53.364;-1.480;2022-07-17T04:43:02;15.63;;;11.20;;
21258;SDS011;10787;53.364;-1.480;2022-07-17T04:45:29;18.55;;;10.85;;
21258;SDS011;10787;53.364;-1.480;2022-07-17T04:47:55;16.58;;;10.95;;
21258;SDS011;10787;53.364;-1.480;2022-07-17T04:50:21;14.80;;;10.60;;
21258;SDS011;10787;53.364;-1.480;2022-07-17T04:52:47;15.43;;;10.93;;
21258;SDS011;10787;53.364;-1.480;2022-07-17T04:55:13;16.33;;;11.10;;
21258;SDS011;10787;53.364;-1.480;2022-07-17T04:57:39;14.60;;;10.85;;
21258;SDS011;10787;53.364;-1.480;2022-07-17T05:00:05;15.93;;;11.60;;
21258;SDS011;10787;53.364;-1.480;2022-07-17T05:02:32;15.70;;;11.02;;
21258;SDS011;10787;53.364;-1.480;2022-07-17T05:04:59;17.77;;;11.45;;
21258;SDS011;10787;53.364;-1.480;2022-07-17T05:07:25;15.18;;;10.40;;
21258;SDS011;10787;53.364;-1.480;2022-07-17T05:09:51;15.48;;;10.98;;
21258;SDS011;10787;53.364;-1.480;2022-07-17T05:12:17;14.13;;;11.00;;
21258;SDS011;10787;53.364;-1.480;2022-07-17T05:14:43;16.33;;;10.90;;
21258;SDS011;10787;53.364;-1.480;2022-07-17T05:17:09;16.52;;;11.48;;
21258;SDS011;10787;53.364;-1.480;2022-07-17T05:19:34;16.00;;;11.20;;
21258;SDS011;10787;53.364;-1.480;2022-07-17T05:22:00;16.13;;;11.20;;
21258;SDS011;10787;53.364;-1.480;2022-07-17T05:24:26;16.13;;;11.32;;
21258;SDS011;10787;53.364;-1.480;2022-07-17T05:26:52;16.77;;;11.35;;
21258;SDS011;10787;53.364;-1.480;2022-07-17T05:29:18;15.57;;;10.80;;
21258;SDS011;10787;53.364;-1.480;2022-07-17T05:31:44;15.43;;;11.07;;
21258;SDS011;10787;53.364;-1.480;2022-07-17T05:34:09;17.48;;;11.00;;
21258;SDS011;10787;53.364;-1.480;2022-07-17T05:36:35;15.05;;;11.57;;
21258;SDS011;10787;53.364;-1.480;2022-07-17T05:39:01;15.48;;;11.02;;
21258;SDS011;10787;53.364;-1.480;2022-07-17T05:41:27;14.77;;;11.32;;
21258;SDS011;10787;53.364;-1.480;2022-07-17T05:43:53;16.50;;;11.75;;
21258;SDS011;10787;53.364;-1.480;2022-07-17T05:46:18;15.30;;;11.25;;
21258;SDS011;10787;53.364;-1.480;2022-07-17T05:48:44;17.40;;;11.07;;
21258;SDS011;10787;53.364;-1.480;2022-07-17T05:51:10;19.10;;;11.82;;
21258;SDS011;10787;53.364;-1.480;2022-07-17T05:53:36;14.43;;;11.20;;
21258;SDS011;10787;53.364;-1.480;2022-07-17T05:56:01;15.43;;;10.95;;
21258;SDS011;10787;53.364;-1.480;2022-07-17T05:58:27;14.02;;;11.15;;
21258;SDS011;10787;53.364;-1.480;2022-07-17T06:00:53;14.18;;;11.25;;
21258;SDS011;10787;53.364;-1.480;2022-07-17T06:03:19;14.63;;;11.13;;
21258;SDS011;10787;53.364;-1.480;2022-07-17T06:05:45;15.27;;;11.13;;
21258;SDS011;10787;53.364;-1.480;2022-07-17T06:08:10;17.17;;;12.30;;
21258;SDS011;10787;53.364;-1.480;2022-07-17T06:10:36;15.82;;;11.90;;
21258;SDS011;10787;53.364;-1.480;2022-07-17T06:13:03;14.30;;;11.50;;
21258;SDS011;10787;53.364;-1.480;2022-07-17T06:15:30;15.77;;;11.73;;
21258;SDS011;10787;53.364;-1.480;2022-07-17T06:17:59;13.75;;;11.30;;
21258;SDS011;10787;53.364;-1.480;2022-07-17T06:20:28;16.65;;;11.40;;
21258;SDS011;10787;53.364;-1.480;2022-07-17T06:22:54;14.35;;;10.88;;
21258;SDS011;10787;53.364;-1.480;2022-07-17T06:25:20;12.15;;;9.88;;
21258;SDS011;10787;53.364;-1.480;2022-07-17T06:27:46;14.90;;;10.23;;
21258;SDS011;10787;53.364;-1.480;2022-07-17T06:30:12;12.50;;;10.40;;
21258;SDS011;10787;53.364;-1.480;2022-07-17T06:32:39;13.60;;;10.43;;
21258;SDS011;10787;53.364;-1.480;2022-07-17T06:35:06;14.00;;;9.77;;
21258;SDS011;10787;53.364;-1.480;2022-07-17T06:37:32;13.18;;;10.40;;
21258;SDS011;10787;53.364;-1.480;2022-07-17T06:39:58;16.38;;;10.65;;
21258;SDS011;10787;53.364;-1.480;2022-07-17T06:42:24;13.25;;;10.02;;
21258;SDS011;10787;53.364;-1.480;2022-07-17T06:44:50;13.98;;;10.05;;
21258;SDS011;10787;53.364;-1.480;2022-07-17T06:47:16;13.50;;;10.10;;
21258;SDS011;10787;53.364;-1.480;2022-07-17T06:49:41;11.52;;;9.70;;
21258;SDS011;10787;53.364;-1.480;2022-07-17T06:52:08;16.75;;;11.00;;
21258;SDS011;10787;53.364;-1.480;2022-07-17T06:54:34;13.23;;;10.80;;
21258;SDS011;10787;53.364;-1.480;2022-07-17T06:57:00;12.73;;;10.27;;
21258;SDS011;10787;53.364;-1.480;2022-07-17T06:59:26;13.70;;;10.27;;
21258;SDS011;10787;53.364;-1.480;2022-07-17T07:01:52;14.48;;;10.07;;
21258;SDS011;10787;53.364;-1.480;2022-07-17T07:04:18;14.07;;;9.73;;
21258;SDS011;10787;53.364;-1.480;2022-07-17T07:06:43;13.05;;;9.65;;
21258;SDS011;10787;53.364;-1.480;2022-07-17T07:09:09;12.38;;;9.75;;
21258;SDS011;10787;53.364;-1.480;2022-07-17T07:11:38;12.45;;;9.40;;
21258;SDS011;10787;53.364;-1.480;2022-07-17T07:14:04;12.45;;;9.63;;
21258;SDS011;10787;53.364;-1.480;2022-07-17T07:16:31;11.82;;;9.48;;
21258;SDS011;10787;53.364;-1.480;2022-07-17T07:18:57;13.27;;;9.50;;
21258;SDS011;10787;53.364;-1.480;2022-07-17T07:21:23;10.60;;;8.65;;
21258;SDS011;10787;53.364;-1.480;2022-07-17T07:23:50;12.35;;;9.38;;
21258;SDS011;10787;53.364;-1.480;2022-07-17T07:26:16;11.82;;;9.20;;
21258;SDS011;10787;53.364;-1.480;2022-07-17T07:28:42;13.10;;;8.48;;
21258;SDS011;10787;53.364;-1.480;2022-07-17T07:31:08;10.27;;;8.13;;
21258;SDS011;10787;53.364;-1.480;2022-07-17T07:33:35;9.57;;;7.70;;
21258;SDS011;10787;53.364;-1.480;2022-07-17T07:36:01;10.18;;;6.88;;
21258;SDS011;10787;53.364;-1.480;2022-07-17T07:38:27;9.00;;;6.70;;
21258;SDS011;10787;53.364;-1.480;2022-07-17T07:40:53;8.10;;;6.47;;
21258;SDS011;10787;53.364;-1.480;2022-07-17T07:43:19;9.10;;;6.85;;
21258;SDS011;10787;53.364;-1.480;2022-07-17T07:45:45;7.68;;;6.38;;
21258;SDS011;10787;53.364;-1.480;2022-07-17T07:48:11;8.27;;;6.30;;
21258;SDS011;10787;53.364;-1.480;2022-07-17T07:50:37;10.77;;;6.63;;
21258;SDS011;10787;53.364;-1.480;2022-07-17T07:53:03;7.63;;;6.57;;
21258;SDS011;10787;53.364;-1.480;2022-07-17T07:55:28;8.52;;;6.38;;
21258;SDS011;10787;53.364;-1.480;2022-07-17T08:00:36;7.07;;;6.10;;
21258;SDS011;10787;53.364;-1.480;2022-07-17T08:03:03;8.68;;;6.38;;
21258;SDS011;10787;53.364;-1.480;2022-07-17T08:05:29;8.55;;;6.65;;
21258;SDS011;10787;53.364;-1.480;2022-07-17T08:07:55;7.50;;;6.05;;
21258;SDS011;10787;53.364;-1.480;2022-07-17T08:10:21;7.68;;;6.35;;
21258;SDS011;10787;53.364;-1.480;2022-07-17T08:12:46;10.43;;;6.10;;
21258;SDS011;10787;53.364;-1.480;2022-07-17T08:15:13;8.30;;;6.70;;
21258;SDS011;10787;53.364;-1.480;2022-07-17T08:17:40;8.63;;;6.15;;
21258;SDS011;10787;53.364;-1.480;2022-07-17T08:20:06;9.35;;;6.32;;
21258;SDS011;10787;53.364;-1.480;2022-07-17T08:22:32;8.10;;;6.90;;
21258;SDS011;10787;53.364;-1.480;2022-07-17T08:24:58;10.18;;;7.25;;
21258;SDS011;10787;53.364;-1.480;2022-07-17T08:27:24;8.93;;;6.85;;
21258;SDS011;10787;53.364;-1.480;2022-07-17T08:29:49;6.88;;;6.28;;
21258;SDS011;10787;53.364;-1.480;2022-07-17T08:32:15;11.00;;;6.82;;
21258;SDS011;10787;53.364;-1.480;2022-07-17T08:34:41;7.90;;;6.80;;
21258;SDS011;10787;53.364;-1.480;2022-07-17T08:37:07;10.27;;;6.50;;
21258;SDS011;10787;53.364;-1.480;2022-07-17T08:39:32;8.93;;;6.22;;
21258;SDS011;10787;53.364;-1.480;2022-07-17T08:41:58;7.85;;;6.55;;
21258;SDS011;10787;53.364;-1.480;2022-07-17T08:44:26;7.18;;;6.28;;
21258;SDS011;10787;53.364;-1.480;2022-07-17T08:46:52;8.75;;;6.47;;
21258;SDS011;10787;53.364;-1.480;2022-07-17T08:49:20;6.65;;;5.88;;
21258;SDS011;10787;53.364;-1.480;2022-07-17T08:51:49;7.47;;;6.15;;
21258;SDS011;10787;53.364;-1.480;2022-07-17T08:54:14;8.90;;;6.20;;
21258;SDS011;10787;53.364;-1.480;2022-07-17T08:56:41;9.80;;;6.10;;
21258;SDS011;10787;53.364;-1.480;2022-07-17T08:59:07;7.57;;;5.85;;
21258;SDS011;10787;53.364;-1.480;2022-07-17T09:01:33;8.15;;;6.05;;
21258;SDS011;10787;53.364;-1.480;2022-07-17T09:04:03;7.45;;;5.95;;
21258;SDS011;10787;53.364;-1.480;2022-07-17T09:06:34;6.68;;;6.05;;
21258;SDS011;10787;53.364;-1.480;2022-07-17T09:09:12;7.40;;;5.88;;
21258;SDS011;10787;53.364;-1.480;2022-07-17T09:14:11;8.02;;;5.55;;
21258;SDS011;10787;53.364;-1.480;2022-07-17T09:16:48;5.93;;;4.97;;
21258;SDS011;10787;53.364;-1.480;2022-07-17T09:19:27;6.13;;;5.20;;
21258;SDS011;10787;53.364;-1.480;2022-07-17T09:22:08;6.22;;;4.93;;
21258;SDS011;10787;53.364;-1.480;2022-07-17T09:24:41;6.80;;;4.72;;
21258;SDS011;10787;53.364;-1.480;2022-07-17T09:27:15;5.80;;;5.20;;
21258;SDS011;10787;53.364;-1.480;2022-07-17T09:29:50;6.90;;;4.70;;
21258;SDS011;10787;53.364;-1.480;2022-07-17T09:32:21;6.55;;;5.18;;
21258;SDS011;10787;53.364;-1.480;2022-07-17T09:34:49;6.72;;;5.03;;
21258;SDS011;10787;53.364;-1.480;2022-07-17T09:37:18;6.35;;;5.13;;
21258;SDS011;10787;53.364;-1.480;2022-07-17T09:39:46;6.00;;;5.10;;
21258;SDS011;10787;53.364;-1.480;2022-07-17T09:42:30;6.22;;;5.18;;
21258;SDS011;10787;53.364;-1.480;2022-07-17T09:45:02;5.80;;;5.18;;
21258;SDS011;10787;53.364;-1.480;2022-07-17T09:47:34;6.15;;;5.18;;
21258;SDS011;10787;53.364;-1.480;2022-07-17T09:50:02;5.57;;;5.07;;
21258;SDS011;10787;53.364;-1.480;2022-07-17T09:52:31;6.60;;;5.43;;
21258;SDS011;10787;53.364;-1.480;2022-07-17T09:54:59;5.43;;;4.80;;
21258;SDS011;10787;53.364;-1.480;2022-07-17T09:57:28;6.05;;;5.45;;
21258;SDS011;10787;53.364;-1.480;2022-07-17T09:59:59;7.32;;;5.30;;
21258;SDS011;10787;53.364;-1.480;2022-07-17T10:02:37;7.80;;;5.43;;
21258;SDS011;10787;53.364;-1.480;2022-07-17T10:05:06;7.72;;;5.50;;
21258;SDS011;10787;53.364;-1.480;2022-07-17T10:07:37;7.70;;;5.53;;
21258;SDS011;10787;53.364;-1.480;2022-07-17T10:10:06;6.50;;;5.72;;
21258;SDS011;10787;53.364;-1.480;2022-07-17T10:12:33;6.18;;;5.43;;
21258;SDS011;10787;53.364;-1.480;2022-07-17T10:15:03;6.78;;;5.40;;
21258;SDS011;10787;53.364;-1.480;2022-07-17T10:17:29;7.43;;;5.55;;
21258;SDS011;10787;53.364;-1.480;2022-07-17T10:19:55;7.95;;;5.38;;
21258;SDS011;10787;53.364;-1.480;2022-07-17T10:22:23;6.50;;;5.38;;
21258;SDS011;10787;53.364;-1.480;2022-07-17T10:24:53;8.10;;;5.45;;
21258;SDS011;10787;53.364;-1.480;2022-07-17T10:30:06;8.55;;;6.07;;
21258;SDS011;10787;53.364;-1.480;2022-07-17T10:32:35;6.50;;;5.90;;
21258;SDS011;10787;53.364;-1.480;2022-07-17T10:35:02;8.45;;;5.90;;
21258;SDS011;10787;53.364;-1.480;2022-07-17T10:45:34;7.68;;;6.10;;
21258;SDS011;10787;53.364;-1.480;2022-07-17T10:50:43;10.63;;;6.32;;
21258;SDS011;10787;53.364;-1.480;2022-07-17T10:53:14;7.07;;;5.55;;
21258;SDS011;10787;53.364;-1.480;2022-07-17T10:55:43;6.55;;;5.60;;
21258;SDS011;10787;53.364;-1.480;2022-07-17T10:58:15;8.00;;;6.13;;
21258;SDS011;10787;53.364;-1.480;2022-07-17T11:11:48;7.20;;;5.93;;
21258;SDS011;10787;53.364;-1.480;2022-07-17T11:21:49;8.23;;;6.05;;
21258;SDS011;10787;53.364;-1.480;2022-07-17T11:24:16;6.45;;;5.82;;
21258;SDS011;10787;53.364;-1.480;2022-07-17T11:26:42;9.00;;;5.80;;
21258;SDS011;10787;53.364;-1.480;2022-07-17T11:29:11;7.15;;;5.82;;
21258;SDS011;10787;53.364;-1.480;2022-07-17T11:31:37;6.68;;;6.05;;
21258;SDS011;10787;53.364;-1.480;2022-07-17T11:34:04;6.55;;;5.90;;
21258;SDS011;10787;53.364;-1.480;2022-07-17T11:36:37;6.55;;;5.90;;
21258;SDS011;10787;53.364;-1.480;2022-07-17T11:39:12;6.78;;;5.93;;
21258;SDS011;10787;53.364;-1.480;2022-07-17T11:41:43;7.32;;;6.45;;
21258;SDS011;10787;53.364;-1.480;2022-07-17T11:44:16;6.45;;;5.85;;
21258;SDS011;10787;53.364;-1.480;2022-07-17T11:46:57;7.28;;;5.75;;
21258;SDS011;10787;53.364;-1.480;2022-07-17T11:49:24;6.65;;;5.95;;
21258;SDS011;10787;53.364;-1.480;2022-07-17T11:51:58;8.73;;;5.88;;
21258;SDS011;10787;53.364;-1.480;2022-07-17T11:54:31;6.38;;;5.65;;
21258;SDS011;10787;53.364;-1.480;2022-07-17T11:57:00;7.82;;;5.85;;
21258;SDS011;10787;53.364;-1.480;2022-07-17T11:59:28;6.38;;;5.70;;
21258;SDS011;10787;53.364;-1.480;2022-07-17T12:01:56;7.50;;;5.65;;
21258;SDS011;10787;53.364;-1.480;2022-07-17T12:04:31;6.00;;;5.40;;
21258;SDS011;10787;53.364;-1.480;2022-07-17T12:06:58;6.35;;;5.68;;
21258;SDS011;10787;53.364;-1.480;2022-07-17T12:09:30;7.80;;;5.57;;
21258;SDS011;10787;53.364;-1.480;2022-07-17T12:12:00;5.80;;;5.30;;
21258;SDS011;10787;53.364;-1.480;2022-07-17T12:14:26;7.28;;;5.18;;
21258;SDS011;10787;53.364;-1.480;2022-07-17T12:16:55;6.38;;;4.95;;
21258;SDS011;10787;53.364;-1.480;2022-07-17T12:19:23;5.30;;;4.80;;
21258;SDS011;10787;53.364;-1.480;2022-07-17T12:24:27;6.32;;;5.07;;
21258;SDS011;10787;53.364;-1.480;2022-07-17T12:27:00;4.95;;;4.45;;
21258;SDS011;10787;53.364;-1.480;2022-07-17T12:29:27;6.50;;;4.90;;
21258;SDS011;10787;53.364;-1.480;2022-07-17T12:34:34;9.57;;;5.55;;
21258;SDS011;10787;53.364;-1.480;2022-07-17T12:37:01;4.95;;;4.45;;
21258;SDS011;10787;53.364;-1.480;2022-07-17T12:39:27;6.60;;;4.55;;
21258;SDS011;10787;53.364;-1.480;2022-07-17T12:41:54;5.65;;;4.60;;
21258;SDS011;10787;53.364;-1.480;2022-07-17T12:44:20;6.97;;;5.53;;
21258;SDS011;10787;53.364;-1.480;2022-07-17T12:46:46;5.00;;;4.10;;
21258;SDS011;10787;53.364;-1.480;2022-07-17T12:49:12;6.13;;;5.47;;
21258;SDS011;10787;53.364;-1.480;2022-07-17T12:51:38;8.43;;;5.35;;
21258;SDS011;10787;53.364;-1.480;2022-07-17T12:54:03;5.20;;;4.20;;
21258;SDS011;10787;53.364;-1.480;2022-07-17T12:56:29;5.82;;;4.40;;
21258;SDS011;10787;53.364;-1.480;2022-07-17T12:58:55;5.15;;;4.65;;
21258;SDS011;10787;53.364;-1.480;2022-07-17T13:01:21;6.13;;;4.88;;
21258;SDS011;10787;53.364;-1.480;2022-07-17T13:03:47;5.57;;;4.75;;
21258;SDS011;10787;53.364;-1.480;2022-07-17T13:06:12;4.97;;;4.38;;
21258;SDS011;10787;53.364;-1.480;2022-07-17T13:08:38;5.25;;;4.75;;
21258;SDS011;10787;53.364;-1.480;2022-07-17T13:11:04;5.10;;;4.30;;
21258;SDS011;10787;53.364;-1.480;2022-07-17T13:13:30;7.75;;;4.97;;
21258;SDS011;10787;53.364;-1.480;2022-07-17T13:15:57;6.97;;;4.70;;
21258;SDS011;10787;53.364;-1.480;2022-07-17T13:18:23;5.30;;;4.80;;
21258;SDS011;10787;53.364;-1.480;2022-07-17T13:20:49;5.82;;;4.63;;
21258;SDS011;10787;53.364;-1.480;2022-07-17T13:23:15;7.93;;;4.47;;
21258;SDS011;10787;53.364;-1.480;2022-07-17T13:25:42;5.70;;;5.10;;
21258;SDS011;10787;53.364;-1.480;2022-07-17T13:28:08;6.13;;;4.90;;
21258;SDS011;10787;53.364;-1.480;2022-07-17T13:30:34;6.28;;;5.00;;
21258;SDS011;10787;53.364;-1.480;2022-07-17T13:33:00;5.30;;;4.80;;
21258;SDS011;10787;53.364;-1.480;2022-07-17T13:35:27;8.00;;;5.18;;
21258;SDS011;10787;53.364;-1.480;2022-07-17T13:37:53;5.85;;;5.15;;
21258;SDS011;10787;53.364;-1.480;2022-07-17T13:40:19;8.13;;;5.90;;
21258;SDS011;10787;53.364;-1.480;2022-07-17T13:42:46;6.88;;;5.05;;
21258;SDS011;10787;53.364;-1.480;2022-07-17T13:45:12;6.13;;;5.00;;
21258;SDS011;10787;53.364;-1.480;2022-07-17T13:47:38;8.95;;;8.07;;
21258;SDS011;10787;53.364;-1.480;2022-07-17T13:50:04;8.50;;;7.05;;
21258;SDS011;10787;53.364;-1.480;2022-07-17T13:52:31;7.47;;;5.70;;
21258;SDS011;10787;53.364;-1.480;2022-07-17T13:54:57;7.13;;;5.25;;
21258;SDS011;10787;53.364;-1.480;2022-07-17T13:57:23;5.90;;;5.30;;
21258;SDS011;10787;53.364;-1.480;2022-07-17T13:59:49;7.25;;;5.75;;
21258;SDS011;10787;53.364;-1.480;2022-07-17T14:02:15;6.97;;;5.60;;
21258;SDS011;10787;53.364;-1.480;2022-07-17T14:04:41;7.32;;;5.70;;
21258;SDS011;10787;53.364;-1.480;2022-07-17T14:07:07;6.40;;;5.65;;
21258;SDS011;10787;53.364;-1.480;2022-07-17T14:09:33;7.07;;;6.38;;
21258;SDS011;10787;53.364;-1.480;2022-07-17T14:11:59;28.98;;;20.35;;
21258;SDS011;10787;53.364;-1.480;2022-07-17T14:14:26;29.55;;;15.13;;
21258;SDS011;10787;53.364;-1.480;2022-07-17T14:16:52;7.80;;;6.30;;
21258;SDS011;10787;53.364;-1.480;2022-07-17T14:19:17;14.75;;;8.50;;
21258;SDS011;10787;53.364;-1.480;2022-07-17T14:21:43;17.30;;;9.88;;
21258;SDS011;10787;53.364;-1.480;2022-07-17T14:24:09;8.43;;;5.90;;
21258;SDS011;10787;53.364;-1.480;2022-07-17T14:26:35;13.90;;;8.60;;
21258;SDS011;10787;53.364;-1.480;2022-07-17T14:29:02;7.18;;;5.18;;
21258;SDS011;10787;53.364;-1.480;2022-07-17T14:31:29;7.47;;;5.88;;
21258;SDS011;10787;53.364;-1.480;2022-07-17T14:33:55;8.45;;;6.53;;
21258;SDS011;10787;53.364;-1.480;2022-07-17T14:36:21;11.68;;;9.48;;
21258;SDS011;10787;53.364;-1.480;2022-07-17T14:38:47;9.80;;;6.63;;
21258;SDS011;10787;53.364;-1.480;2022-07-17T14:41:13;13.25;;;10.45;;
21258;SDS011;10787;53.364;-1.480;2022-07-17T14:43:39;5.40;;;4.85;;
21258;SDS011;10787;53.364;-1.480;2022-07-17T14:46:05;8.52;;;4.70;;
21258;SDS011;10787;53.364;-1.480;2022-07-17T14:48:30;8.50;;;5.32;;
21258;SDS011;10787;53.364;-1.480;2022-07-17T14:50:57;5.90;;;4.93;;
21258;SDS011;10787;53.364;-1.480;2022-07-17T14:53:23;6.47;;;4.90;;
21258;SDS011;10787;53.364;-1.480;2022-07-17T14:55:49;7.75;;;4.82;;
21258;SDS011;10787;53.364;-1.480;2022-07-17T14:58:15;7.25;;;4.82;;
21258;SDS011;10787;53.364;-1.480;2022-07-17T15:00:40;8.18;;;5.60;;
21258;SDS011;10787;53.364;-1.480;2022-07-17T15:03:06;6.32;;;5.10;;